Time;durP1;ratioP1;P1;durP2;ratioP2;P2;SDS_P1;SDS_P2;PMS_P1;PMS_P2;Temp;Humidity;BMP_temperature;BMP_pressure;BME280_temperature;BME280_humidity;BME280_pressure;Samples;Min_cycle;Max_cycle;Signal;HPM_P1;HPM_P2
2023/04/08 00:01:23;;;;;;;0.10;0.10;;;6.90;99.90;;;;;;6158591;23;20005;-89
2023/04/08 00:03:49;;;;;;;0.10;0.10;;;7.00;99.90;;;;;;6159282;23;20005;-88
2023/04/08 00:06:15;;;;;;;0.10;0.10;;;7.10;99.90;;;;;;6158560;23;20047;-88
2023/04/08 00:08:40;;;;;;;0.10;0.10;;;7.00;99.90;;;;;;6159041;23;20084;-88
2023/04/08 00:11:06;;;;;;;0.00;0.00;;;7.00;99.90;;;;;;6158448;23;20483;-88
2023/04/08 00:13:31;;;;;;;0.10;0.10;;;7.10;99.90;;;;;;6159001;23;20093;-88
2023/04/08 00:15:57;;;;;;;0.10;0.10;;;7.10;99.90;;;;;;6158830;23;20368;-87
2023/04/08 00:18:22;;;;;;;0.00;0.00;;;7.10;99.90;;;;;;6158592;23;20436;-88
2023/04/08 00:20:48;;;;;;;0.10;0.10;;;7.00;99.90;;;;;;6158012;23;20001;-88
2023/04/08 00:23:13;;;;;;;0.10;0.10;;;6.90;99.90;;;;;;6158408;23;20011;-88
2023/04/08 00:25:39;;;;;;;0.10;0.10;;;6.90;99.90;;;;;;6157328;23;20067;-88
2023/04/08 00:28:05;;;;;;;0.00;0.00;;;6.90;99.90;;;;;;6157906;23;20005;-89
2023/04/08 00:30:30;;;;;;;0.10;0.10;;;6.90;99.90;;;;;;6157726;23;20060;-88
2023/04/08 00:32:56;;;;;;;0.10;0.10;;;7.00;99.90;;;;;;6158370;23;20083;-88
2023/04/08 00:35:21;;;;;;;0.10;0.10;;;7.10;99.90;;;;;;6156423;23;20013;-89
2023/04/08 00:37:47;;;;;;;0.10;0.10;;;7.20;99.90;;;;;;6158531;23;20456;-88
2023/04/08 00:40:12;;;;;;;0.10;0.10;;;7.10;99.90;;;;;;6157854;23;20008;-89
2023/04/08 00:42:38;;;;;;;0.00;0.00;;;7.20;99.90;;;;;;6158643;23;20028;-89
2023/04/08 00:45:04;;;;;;;0.10;0.10;;;7.30;99.90;;;;;;6155893;23;20005;-87
2023/04/08 00:47:30;;;;;;;0.10;0.10;;;7.30;99.90;;;;;;6156531;23;20407;-88
2023/04/08 00:49:56;;;;;;;0.10;0.10;;;7.30;99.90;;;;;;6158097;23;20055;-88
2023/04/08 00:52:21;;;;;;;0.10;0.10;;;7.30;99.90;;;;;;6158087;23;20008;-88
2023/04/08 00:54:47;;;;;;;0.10;0.10;;;7.40;99.90;;;;;;6157904;23;20020;-88
2023/04/08 00:57:12;;;;;;;0.10;0.10;;;7.40;99.90;;;;;;6158703;23;20007;-89
2023/04/08 00:59:38;;;;;;;0.10;0.10;;;7.40;99.90;;;;;;6157129;23;20045;-89
2023/04/08 01:02:30;;;;;;;0.10;0.10;;;7.50;99.90;;;;;;6182967;23;20059;-89
2023/04/08 01:05:03;;;;;;;0.10;0.10;;;7.50;99.90;;;;;;6157448;23;20016;-88
2023/04/08 01:07:35;;;;;;;0.10;0.10;;;7.50;99.90;;;;;;6157763;23;20012;-89
2023/04/08 01:10:06;;;;;;;0.10;0.10;;;7.50;99.90;;;;;;6158166;23;20004;-88
2023/04/08 01:12:39;;;;;;;0.10;0.10;;;7.40;99.90;;;;;;6156607;23;20055;-88
2023/04/08 01:15:07;;;;;;;0.10;0.10;;;7.40;99.90;;;;;;6156497;23;20107;-88
2023/04/08 01:17:34;;;;;;;0.10;0.10;;;7.50;99.90;;;;;;6157737;23;20001;-88
2023/04/08 01:20:03;;;;;;;0.10;0.10;;;7.60;99.90;;;;;;6157593;23;20012;-90
2023/04/08 01:22:47;;;;;;;0.10;0.10;;;7.50;99.90;;;;;;6157470;23;20093;-89
2023/04/08 01:25:21;;;;;;;0.10;0.10;;;7.40;99.90;;;;;;6157824;23;20441;-88
2023/04/08 01:27:48;;;;;;;0.10;0.10;;;7.40;99.90;;;;;;6154677;23;20005;-87
2023/04/08 01:30:17;;;;;;;0.10;0.10;;;7.30;99.90;;;;;;6152014;23;20310;-88
2023/04/08 01:32:43;;;;;;;0.05;0.05;;;7.30;99.90;;;;;;6180736;23;20051;-88
2023/04/08 01:35:10;;;;;;;0.10;0.10;;;7.20;99.90;;;;;;6179806;23;20432;-89
2023/04/08 01:37:37;;;;;;;0.10;0.10;;;7.30;99.90;;;;;;6181648;23;20442;-89
2023/04/08 01:40:05;;;;;;;0.10;0.10;;;7.40;99.90;;;;;;6181569;23;20008;-88
2023/04/08 01:42:32;;;;;;;0.10;0.10;;;7.60;99.90;;;;;;6181835;23;20005;-88
2023/04/08 01:44:58;;;;;;;0.10;0.10;;;7.60;99.90;;;;;;6180353;23;20001;-87
2023/04/08 01:47:24;;;;;;;0.10;0.10;;;7.40;99.90;;;;;;6180491;23;20005;-87
2023/04/08 01:49:51;;;;;;;0.00;0.00;;;7.40;99.90;;;;;;6182303;23;20580;-89
2023/04/08 01:52:19;;;;;;;0.10;0.10;;;7.60;99.90;;;;;;6182095;23;20055;-88
2023/04/08 01:54:46;;;;;;;0.10;0.10;;;7.40;99.90;;;;;;6181849;23;20497;-88
2023/04/08 01:57:16;;;;;;;0.10;0.10;;;7.40;99.90;;;;;;6182638;23;20091;-88
2023/04/08 01:59:44;;;;;;;0.10;0.10;;;7.50;99.90;;;;;;6181201;23;20336;-88
2023/04/08 02:02:10;;;;;;;0.10;0.10;;;7.50;99.90;;;;;;6180247;23;20096;-89
2023/04/08 02:04:36;;;;;;;0.10;0.10;;;7.40;99.90;;;;;;6181515;23;20009;-89
2023/04/08 02:07:03;;;;;;;0.10;0.10;;;7.40;99.90;;;;;;6182671;23;20024;-88
2023/04/08 02:09:29;;;;;;;0.10;0.10;;;7.50;99.90;;;;;;6181829;23;20222;-87
2023/04/08 02:11:56;;;;;;;0.10;0.10;;;7.40;99.90;;;;;;6182094;23;20088;-89
2023/04/08 02:14:22;;;;;;;0.10;0.10;;;7.40;99.90;;;;;;6181533;23;20001;-88
2023/04/08 02:17:11;;;;;;;0.10;0.10;;;7.50;99.90;;;;;;6181566;23;20300;-89
2023/04/08 02:19:53;;;;;;;0.10;0.10;;;7.40;99.90;;;;;;6180217;23;20432;-88
2023/04/08 02:22:26;;;;;;;0.10;0.10;;;7.50;99.90;;;;;;6180646;23;20436;-87
2023/04/08 02:24:52;;;;;;;0.10;0.10;;;7.40;99.90;;;;;;6182213;23;20462;-88
2023/04/08 02:27:19;;;;;;;0.10;0.10;;;7.40;99.90;;;;;;6182131;23;20032;-88
2023/04/08 02:29:46;;;;;;;0.10;0.10;;;7.40;99.90;;;;;;6181212;23;20441;-87
2023/04/08 02:32:12;;;;;;;0.10;0.10;;;7.30;99.90;;;;;;6181726;23;20028;-89
2023/04/08 02:34:40;;;;;;;0.10;0.10;;;7.30;99.90;;;;;;6181372;23;20059;-89
2023/04/08 02:37:07;;;;;;;0.10;0.10;;;7.30;99.90;;;;;;6182466;23;20058;-88
2023/04/08 02:39:33;;;;;;;0.10;0.10;;;7.30;99.90;;;;;;6181131;23;20016;-89
2023/04/08 02:41:59;;;;;;;0.10;0.10;;;7.30;99.90;;;;;;6182698;23;20352;-88
2023/04/08 02:44:24;;;;;;;0.10;0.10;;;7.20;99.90;;;;;;6181539;23;20009;-89
2023/04/08 02:46:50;;;;;;;0.03;0.03;;;7.20;99.90;;;;;;6181218;23;20012;-88
2023/04/08 02:49:15;;;;;;;0.10;0.10;;;7.00;99.90;;;;;;6181303;23;20011;-89
2023/04/08 02:51:41;;;;;;;0.10;0.10;;;7.00;99.90;;;;;;6181229;23;20464;-87
2023/04/08 02:54:06;;;;;;;0.10;0.10;;;6.90;99.90;;;;;;6186924;23;20038;-86
2023/04/08 02:56:32;;;;;;;0.10;0.10;;;7.00;99.90;;;;;;6184961;23;20031;-89
2023/04/08 02:58:57;;;;;;;0.10;0.10;;;7.10;99.90;;;;;;6185099;23;20001;-89
2023/04/08 03:01:23;;;;;;;0.10;0.10;;;6.90;99.90;;;;;;6185337;23;20412;-88
2023/04/08 03:03:49;;;;;;;0.10;0.10;;;7.00;99.90;;;;;;6187299;23;20062;-89
2023/04/08 03:06:14;;;;;;;0.10;0.10;;;6.90;99.90;;;;;;6186198;23;20088;-88
2023/04/08 03:08:40;;;;;;;0.10;0.10;;;6.90;99.90;;;;;;6186530;23;20047;-88
2023/04/08 03:11:05;;;;;;;0.10;0.10;;;7.00;99.90;;;;;;6189027;23;20004;-89
2023/04/08 03:13:31;;;;;;;0.10;0.10;;;7.20;99.90;;;;;;6188960;23;20459;-89
2023/04/08 03:15:57;;;;;;;0.10;0.10;;;7.30;99.90;;;;;;6187195;23;20001;-89
2023/04/08 03:18:24;;;;;;;0.10;0.10;;;7.20;99.90;;;;;;6189259;23;20051;-87
2023/04/08 03:20:50;;;;;;;0.10;0.10;;;7.20;99.90;;;;;;6188997;23;20013;-89
2023/04/08 03:23:15;;;;;;;0.10;0.10;;;7.10;99.90;;;;;;6188908;23;20495;-89
2023/04/08 03:25:41;;;;;;;0.10;0.10;;;;;;;;;;6188368;23;20011;-89
2023/04/08 03:28:06;;;;;;;0.10;0.10;;;7.10;99.90;;;;;;6188457;23;20447;-88
2023/04/08 03:30:32;;;;;;;0.10;0.10;;;7.00;99.90;;;;;;6186285;23;20000;-89
2023/04/08 03:32:58;;;;;;;0.10;0.10;;;6.90;99.90;;;;;;6189577;23;20000;-89
2023/04/08 03:35:23;;;;;;;0.00;0.00;;;6.80;99.90;;;;;;6187960;23;20436;-89
2023/04/08 03:37:49;;;;;;;0.10;0.10;;;6.90;99.90;;;;;;6189551;23;20008;-89
2023/04/08 03:40:14;;;;;;;0.10;0.10;;;7.00;99.90;;;;;;6189285;23;20083;-88
2023/04/08 03:42:40;;;;;;;0.10;0.10;;;6.80;99.90;;;;;;6189724;23;20009;-88
2023/04/08 03:45:06;;;;;;;0.10;0.10;;;7.60;99.90;;;;;;6189405;23;20524;-89
2023/04/08 03:47:32;;;;;;;0.10;0.10;;;7.00;99.90;;;;;;6190335;23;20027;-88
2023/04/08 03:49:57;;;;;;;0.10;0.10;;;6.90;99.90;;;;;;6217113;23;20425;-89
2023/04/08 03:52:24;;;;;;;0.05;0.05;;;6.90;99.90;;;;;;6189644;23;20011;-89
2023/04/08 03:54:49;;;;;;;0.10;0.10;;;6.90;99.90;;;;;;6189941;23;20424;-89
2023/04/08 03:57:15;;;;;;;0.10;0.10;;;7.00;99.90;;;;;;6189801;23;20001;-89
2023/04/08 03:59:40;;;;;;;0.10;0.10;;;6.80;99.90;;;;;;6189590;23;20005;-89
2023/04/08 04:02:06;;;;;;;0.10;0.10;;;7.00;99.90;;;;;;6189768;23;20005;-89
2023/04/08 04:04:32;;;;;;;0.10;0.10;;;7.00;99.90;;;;;;6189308;23;20424;-89
2023/04/08 04:06:58;;;;;;;0.10;0.10;;;7.00;99.90;;;;;;6190189;23;20008;-89
2023/04/08 04:09:23;;;;;;;0.10;0.10;;;7.00;99.90;;;;;;6189003;23;20013;-89
2023/04/08 04:11:49;;;;;;;0.10;0.10;;;6.90;99.90;;;;;;6190012;23;20051;-90
2023/04/08 04:14:14;;;;;;;0.10;0.10;;;7.00;99.90;;;;;;6189797;23;20024;-89
2023/04/08 04:16:40;;;;;;;0.10;0.10;;;6.80;99.90;;;;;;6189392;23;20004;-89
2023/04/08 04:19:05;;;;;;;0.10;0.10;;;6.80;99.90;;;;;;6189544;23;20000;-89
2023/04/08 04:21:31;;;;;;;0.10;0.10;;;6.80;99.90;;;;;;6188551;23;20024;-89
2023/04/08 04:23:56;;;;;;;0.13;0.13;;;7.10;99.90;;;;;;6189497;23;20005;-89
2023/04/08 04:26:22;;;;;;;0.10;0.10;;;6.90;99.90;;;;;;6189603;23;20039;-89
2023/04/08 04:28:47;;;;;;;0.10;0.10;;;7.00;99.90;;;;;;6188953;23;20015;-90
2023/04/08 04:31:26;;;;;;;0.10;0.10;;;6.80;99.90;;;;;;6189470;23;20506;-89
2023/04/08 04:33:52;;;;;;;0.10;0.10;;;6.70;99.90;;;;;;6189538;23;20001;-89
2023/04/08 04:36:18;;;;;;;0.10;0.10;;;6.90;99.90;;;;;;6189107;23;20035;-89
2023/04/08 04:38:44;;;;;;;0.10;0.10;;;6.90;99.90;;;;;;6189243;23;20124;-89
2023/04/08 04:41:10;;;;;;;0.05;0.05;;;7.50;99.90;;;;;;6189689;23;20038;-89
2023/04/08 04:43:35;;;;;;;0.10;0.10;;;7.60;99.90;;;;;;6189321;23;20387;-89
2023/04/08 04:46:03;;;;;;;0.10;0.10;;;;;;;;;;6188458;23;20015;-89
2023/04/08 04:48:28;;;;;;;0.10;0.10;;;6.90;99.90;;;;;;6189388;23;20008;-89
2023/04/08 04:50:58;;;;;;;0.10;0.10;;;6.80;99.90;;;;;;6189336;23;20035;-89
2023/04/08 04:53:24;;;;;;;0.10;0.10;;;6.90;99.90;;;;;;6189743;23;20008;-89
2023/04/08 04:55:50;;;;;;;0.10;0.10;;;6.70;99.90;;;;;;6188177;23;20094;-90
2023/04/08 04:58:16;;;;;;;0.10;0.10;;;6.90;99.90;;;;;;6189168;23;20083;-89
2023/04/08 05:00:42;;;;;;;0.10;0.10;;;7.00;99.90;;;;;;6188902;23;20005;-89
2023/04/08 05:03:07;;;;;;;0.10;0.10;;;7.10;99.90;;;;;;6189342;23;20011;-89
2023/04/08 05:05:33;;;;;;;0.10;0.10;;;7.20;99.90;;;;;;6188768;23;20375;-90
2023/04/08 05:07:58;;;;;;;0.10;0.10;;;7.40;99.90;;;;;;6189054;23;20008;-88
2023/04/08 05:10:24;;;;;;;0.10;0.10;;;7.60;99.90;;;;;;6189720;23;20373;-90
2023/04/08 05:12:49;;;;;;;0.10;0.10;;;7.00;99.90;;;;;;6189226;23;20087;-91
2023/04/08 05:15:15;;;;;;;0.10;0.10;;;7.90;99.90;;;;;;6189288;23;20001;-89
2023/04/08 05:17:40;;;;;;;0.10;0.10;;;7.80;99.90;;;;;;6189663;23;20036;-90
2023/04/08 05:20:06;;;;;;;0.10;0.10;;;7.00;99.90;;;;;;6188533;23;20507;-89
2023/04/08 05:22:33;;;;;;;0.10;0.10;;;6.90;99.90;;;;;;6188883;23;20004;-89
2023/04/08 05:24:59;;;;;;;0.10;0.10;;;7.50;99.90;;;;;;6189332;23;20005;-89
2023/04/08 05:27:24;;;;;;;0.10;0.10;;;7.20;99.90;;;;;;6190182;23;20004;-89
2023/04/08 05:29:50;;;;;;;0.10;0.10;;;;;;;;;;6188012;23;20013;-91
2023/04/08 05:32:16;;;;;;;0.10;0.10;;;6.70;99.90;;;;;;6189353;23;20005;-89
2023/04/08 05:34:42;;;;;;;0.10;0.10;;;6.80;99.90;;;;;;6189223;23;20055;-88
2023/04/08 05:37:07;;;;;;;0.10;0.10;;;7.30;99.90;;;;;;6187898;23;20005;-89
2023/04/08 05:39:33;;;;;;;0.10;0.10;;;6.90;99.90;;;;;;6187960;23;20017;-90
2023/04/08 05:41:58;;;;;;;0.10;0.10;;;6.90;99.90;;;;;;6189554;23;20001;-88
2023/04/08 05:44:24;;;;;;;0.10;0.10;;;7.00;99.90;;;;;;6189581;23;20008;-89
2023/04/08 05:46:49;;;;;;;0.10;0.10;;;7.00;99.90;;;;;;6188417;23;20378;-89
2023/04/08 05:49:16;;;;;;;0.10;0.10;;;6.80;99.90;;;;;;6188291;23;20035;-89
2023/04/08 05:51:42;;;;;;;0.10;0.10;;;6.90;99.90;;;;;;6188550;23;20072;-89
2023/04/08 05:54:08;;;;;;;0.08;0.08;;;7.00;99.90;;;;;;6188183;23;20040;-90
2023/04/08 05:56:33;;;;;;;0.10;0.10;;;7.60;99.90;;;;;;6163726;23;20054;-90
2023/04/08 05:58:59;;;;;;;0.10;0.10;;;7.10;99.90;;;;;;6188126;23;20091;-89
2023/04/08 06:01:25;;;;;;;0.10;0.10;;;7.90;99.90;;;;;;6188577;23;20005;-88
2023/04/08 06:03:51;;;;;;;0.10;0.10;;;7.10;99.90;;;;;;6188826;23;20019;-89
2023/04/08 06:06:17;;;;;;;0.10;0.10;;;7.10;99.90;;;;;;6188879;23;20416;-89
2023/04/08 06:08:43;;;;;;;0.10;0.10;;;7.20;99.90;;;;;;6187739;23;20059;-90
2023/04/08 06:11:08;;;;;;;0.10;0.10;;;7.10;99.90;;;;;;6188041;23;20027;-89
2023/04/08 06:13:34;;;;;;;0.10;0.10;;;7.90;99.90;;;;;;6188541;23;20092;-89
2023/04/08 06:16:10;;;;;;;0.10;0.10;;;7.10;99.90;;;;;;6188597;23;20008;-88
2023/04/08 06:18:35;;;;;;;0.10;0.10;;;7.10;99.90;;;;;;6188589;23;20031;-90
2023/04/08 06:21:00;;;;;;;0.05;0.05;;;8.20;99.90;;;;;;6188506;23;20088;-90
2023/04/08 06:23:27;;;;;;;0.00;0.00;;;7.30;99.90;;;;;;6189713;23;20027;-89
2023/04/08 06:25:53;;;;;;;0.10;0.10;;;7.60;99.90;;;;;;6188610;23;20036;-89
2023/04/08 06:28:18;;;;;;;0.10;0.10;;;7.10;99.90;;;;;;6188091;23;20004;-89
2023/04/08 06:30:44;;;;;;;0.10;0.10;;;7.20;99.90;;;;;;6188764;23;20493;-90
2023/04/08 06:33:09;;;;;;;0.10;0.10;;;7.60;99.90;;;;;;6188707;23;20008;-89
2023/04/08 06:35:36;;;;;;;0.10;0.10;;;7.70;99.90;;;;;;6188268;23;20004;-89
2023/04/08 06:38:02;;;;;;;0.10;0.10;;;7.40;99.90;;;;;;6188036;23;20011;-89
2023/04/08 06:40:28;;;;;;;0.10;0.10;;;7.40;99.90;;;;;;6188838;23;20095;-88
2023/04/08 06:42:53;;;;;;;0.10;0.10;;;7.50;99.90;;;;;;6188107;23;20039;-89
2023/04/08 06:45:19;;;;;;;0.10;0.10;;;8.80;99.90;;;;;;6188487;23;20004;-89
2023/04/08 06:47:45;;;;;;;0.10;0.10;;;7.60;99.90;;;;;;6188079;23;20008;-89
2023/04/08 06:50:10;;;;;;;0.10;0.10;;;7.70;99.90;;;;;;6188384;23;19997;-89
2023/04/08 06:52:36;;;;;;;0.10;0.10;;;8.30;99.90;;;;;;6188255;23;20075;-90
2023/04/08 06:55:01;;;;;;;0.10;0.10;;;7.70;99.90;;;;;;6188481;23;20091;-89
2023/04/08 06:57:27;;;;;;;0.10;0.10;;;8.50;99.90;;;;;;6188717;23;20085;-90
2023/04/08 06:59:52;;;;;;;0.00;0.00;;;7.70;99.90;;;;;;6187503;23;20001;-90
2023/04/08 07:02:18;;;;;;;0.03;0.03;;;7.70;99.90;;;;;;6188507;23;20004;-90
2023/04/08 07:04:44;;;;;;;0.10;0.10;;;7.60;99.90;;;;;;6188089;23;20035;-89
2023/04/08 07:07:09;;;;;;;0.10;0.10;;;7.70;99.90;;;;;;6188284;23;20091;-91
2023/04/08 07:09:35;;;;;;;0.10;0.10;;;7.60;99.90;;;;;;6186628;23;20007;-89
2023/04/08 07:12:03;;;;;;;0.10;0.10;;;7.70;99.90;;;;;;6188490;23;20076;-90
2023/04/08 07:14:28;;;;;;;0.10;0.10;;;7.70;99.90;;;;;;6187628;23;20439;-90
2023/04/08 07:16:55;;;;;;;0.10;0.10;;;8.20;99.90;;;;;;6187987;23;20008;-89
2023/04/08 07:19:21;;;;;;;0.10;0.10;;;7.70;99.90;;;;;;6188135;23;20619;-89
2023/04/08 07:21:47;;;;;;;0.10;0.10;;;8.40;99.90;;;;;;6188101;23;20031;-90
2023/04/08 07:24:12;;;;;;;0.10;0.10;;;7.70;99.90;;;;;;6188546;23;20444;-90
2023/04/08 07:26:38;;;;;;;0.10;0.10;;;7.70;99.90;;;;;;6188354;23;20087;-90
2023/04/08 07:29:04;;;;;;;0.08;0.08;;;7.70;99.90;;;;;;6188342;23;20000;-89
2023/04/08 07:31:29;;;;;;;0.10;0.10;;;7.70;99.90;;;;;;6187423;23;20430;-89
2023/04/08 07:33:55;;;;;;;0.10;0.10;;;7.90;99.90;;;;;;6188083;23;20428;-90
2023/04/08 07:36:20;;;;;;;0.10;0.10;;;7.90;99.90;;;;;;6188190;23;20001;-89
2023/04/08 07:38:46;;;;;;;0.00;0.00;;;7.90;99.90;;;;;;6187032;23;20009;-89
2023/04/08 07:41:12;;;;;;;0.10;0.10;;;8.60;99.90;;;;;;6187547;23;20009;-90
2023/04/08 07:43:38;;;;;;;0.10;0.10;;;7.90;99.90;;;;;;6188102;23;20086;-90
2023/04/08 07:46:04;;;;;;;0.10;0.10;;;7.80;99.90;;;;;;6188015;23;20011;-89
2023/04/08 07:48:31;;;;;;;0.10;0.10;;;7.90;99.90;;;;;;6187841;23;20510;-90
2023/04/08 07:50:56;;;;;;;0.10;0.10;;;7.90;99.90;;;;;;6188429;23;20008;-90
2023/04/08 07:53:23;;;;;;;0.10;0.10;;;;;;;;;;6188478;23;19993;-89
2023/04/08 07:55:49;;;;;;;0.10;0.10;;;7.90;99.90;;;;;;6189609;23;20016;-89
2023/04/08 07:58:15;;;;;;;0.10;0.10;;;8.00;99.90;;;;;;6190536;23;20008;-91
2023/04/08 08:00:40;;;;;;;0.10;0.10;;;8.30;99.90;;;;;;6190540;23;20019;-90
2023/04/08 08:03:06;;;;;;;0.10;0.10;;;8.70;99.90;;;;;;6190072;23;20087;-89
2023/04/08 08:05:31;;;;;;;0.10;0.10;;;8.40;99.90;;;;;;6189949;23;20083;-91
2023/04/08 08:07:58;;;;;;;0.10;0.10;;;8.40;99.90;;;;;;6189856;23;20018;-89
2023/04/08 08:10:23;;;;;;;0.10;0.10;;;9.00;99.90;;;;;;6190376;23;20001;-90
2023/04/08 08:12:49;;;;;;;0.10;0.10;;;8.70;99.90;;;;;;6189813;23;20438;-90
2023/04/08 08:15:14;;;;;;;0.10;0.10;;;8.60;99.90;;;;;;6190055;23;20365;-90
2023/04/08 08:17:40;;;;;;;0.00;0.00;;;8.50;99.90;;;;;;6190333;23;20051;-89
2023/04/08 08:20:06;;;;;;;0.10;0.10;;;9.20;99.90;;;;;;6190054;23;20428;-90
2023/04/08 08:22:32;;;;;;;0.10;0.10;;;8.40;99.90;;;;;;6189962;23;20343;-90
2023/04/08 08:24:58;;;;;;;0.10;0.10;;;8.40;99.90;;;;;;6189918;23;20004;-90
2023/04/08 08:27:24;;;;;;;0.05;0.05;;;8.50;99.90;;;;;;6190259;23;20008;-90
2023/04/08 08:29:50;;;;;;;0.00;0.00;;;;;;;;;;6190233;23;20013;-90
2023/04/08 08:32:15;;;;;;;0.10;0.10;;;8.60;99.90;;;;;;6191392;23;20005;-89
2023/04/08 08:34:41;;;;;;;0.10;0.10;;;;;;;;;;6190585;23;20005;-89
2023/04/08 08:37:07;;;;;;;0.10;0.10;;;;;;;;;;6190922;23;20024;-90
2023/04/08 08:39:33;;;;;;;0.10;0.10;;;;;;;;;;6190551;23;20390;-89
2023/04/08 08:42:00;;;;;;;0.10;0.10;;;8.60;99.90;;;;;;6190037;23;20527;-89
2023/04/08 08:44:27;;;;;;;0.10;0.10;;;;;;;;;;6190558;23;20008;-89
2023/04/08 08:46:53;;;;;;;0.10;0.10;;;;;;;;;;6190291;23;20004;-89
2023/04/08 08:49:19;;;;;;;0.10;0.10;;;;;;;;;;6190421;23;20343;-90
2023/04/08 08:51:49;;;;;;;0.10;0.10;;;8.80;99.90;;;;;;6190168;23;20011;-90
2023/04/08 08:54:15;;;;;;;0.10;0.10;;;8.80;99.90;;;;;;6189549;23;20005;-89
2023/04/08 08:56:42;;;;;;;0.10;0.10;;;9.70;99.90;;;;;;6189254;23;20091;-89
2023/04/08 08:59:08;;;;;;;0.10;0.10;;;9.00;99.90;;;;;;6189770;23;20091;-90
2023/04/08 09:01:36;;;;;;;0.10;0.10;;;9.00;99.90;;;;;;6189948;23;20028;-90
2023/04/08 09:04:17;;;;;;;0.10;0.10;;;9.10;99.90;;;;;;6189763;23;20015;-90
2023/04/08 09:06:47;;;;;;;0.10;0.10;;;9.00;99.90;;;;;;6189140;23;20008;-90
2023/04/08 09:09:13;;;;;;;0.10;0.10;;;9.00;99.90;;;;;;6189738;23;20001;-89
2023/04/08 09:11:40;;;;;;;0.10;0.10;;;9.00;99.90;;;;;;6189916;23;20000;-89
2023/04/08 09:14:20;;;;;;;0.10;0.10;;;9.10;99.90;;;;;;6189505;23;20336;-90
2023/04/08 09:16:46;;;;;;;0.10;0.10;;;9.30;99.90;;;;;;6189722;23;20004;-89
2023/04/08 09:19:12;;;;;;;0.10;0.10;;;9.50;99.90;;;;;;6189528;23;20008;-90
2023/04/08 09:21:39;;;;;;;0.10;0.10;;;9.60;99.90;;;;;;6189497;23;20487;-89
2023/04/08 09:24:05;;;;;;;0.10;0.10;;;9.60;99.90;;;;;;6189392;23;20009;-89
2023/04/08 09:26:30;;;;;;;0.10;0.10;;;9.40;99.90;;;;;;6189163;23;20453;-89
2023/04/08 09:29:07;;;;;;;0.10;0.10;;;9.60;99.90;;;;;;6189737;23;20043;-90
2023/04/08 09:31:40;;;;;;;0.10;0.10;;;9.60;99.90;;;;;;6189627;23;20001;-90
2023/04/08 09:34:16;;;;;;;0.10;0.10;;;10.30;99.90;;;;;;6190131;23;20055;-89
2023/04/08 09:36:47;;;;;;;0.03;0.03;;;9.60;99.90;;;;;;6188949;23;20001;-90
2023/04/08 09:39:15;;;;;;;0.10;0.10;;;9.70;99.90;;;;;;6186214;23;20009;-89
2023/04/08 09:41:42;;;;;;;0.10;0.10;;;9.80;99.90;;;;;;6186791;23;20019;-90
2023/04/08 09:44:10;;;;;;;0.10;0.10;;;9.90;99.90;;;;;;6188108;23;20043;-91
2023/04/08 09:46:49;;;;;;;0.10;0.10;;;9.70;99.90;;;;;;6163376;23;20013;-89
2023/04/08 09:49:24;;;;;;;0.10;0.10;;;9.90;99.90;;;;;;6188615;23;20012;-90
2023/04/08 09:52:07;;;;;;;0.10;0.10;;;10.10;99.90;;;;;;6188539;23;20236;-90
2023/04/08 09:54:56;;;;;;;0.10;0.10;;;10.20;99.90;;;;;;6187810;23;20016;-89
2023/04/08 09:57:33;;;;;;;0.05;0.05;;;10.00;99.90;;;;;;6187724;23;20054;-90
2023/04/08 10:00:13;;;;;;;0.10;0.10;;;10.20;99.90;;;;;;6163271;23;20016;-90
2023/04/08 10:02:59;;;;;;;0.10;0.10;;;10.20;99.90;;;;;;6188170;23;20004;-90
2023/04/08 10:05:26;;;;;;;0.10;0.10;;;10.20;99.90;;;;;;6188147;23;20313;-90
2023/04/08 10:07:52;;;;;;;0.10;0.10;;;10.10;99.90;;;;;;6187356;23;20004;-89
2023/04/08 10:10:18;;;;;;;0.10;0.10;;;10.10;99.90;;;;;;6186385;23;20015;-89
2023/04/08 10:12:43;;;;;;;0.10;0.10;;;10.10;99.90;;;;;;6183235;23;20336;-90
2023/04/08 10:15:28;;;;;;;0.10;0.10;;;10.10;99.90;;;;;;6186557;23;20059;-90
2023/04/08 10:18:19;;;;;;;0.03;0.03;;;10.20;99.90;;;;;;6188592;23;20424;-90
2023/04/08 10:20:46;;;;;;;0.10;0.10;;;10.20;99.90;;;;;;6188994;23;20010;-90
2023/04/08 10:23:13;;;;;;;0.10;0.10;;;10.40;99.90;;;;;;6188506;23;20054;-90
2023/04/08 10:25:46;;;;;;;0.10;0.10;;;10.60;99.90;;;;;;6187879;23;20004;-90
2023/04/08 10:28:18;;;;;;;0.08;0.08;;;10.30;99.90;;;;;;6185626;23;20009;-90
2023/04/08 10:30:48;;;;;;;0.10;0.10;;;10.40;99.90;;;;;;6187792;23;20005;-91
2023/04/08 10:33:18;;;;;;;;;;;10.30;99.90;;;;;;6187856;23;20001;-91
2023/04/08 10:35:47;;;;;;;;;;;10.20;99.90;;;;;;6186892;23;19965;-90
2023/04/08 10:38:14;;;;;;;0.10;0.10;;;10.30;99.90;;;;;;6187892;23;19925;-91
2023/04/08 10:40:41;;;;;;;0.10;0.10;;;10.20;99.90;;;;;;6187654;23;20032;-92
2023/04/08 10:43:08;;;;;;;0.10;0.10;;;10.20;99.90;;;;;;6187196;23;20015;-92
2023/04/08 10:45:34;;;;;;;0.10;0.10;;;10.30;99.90;;;;;;6186982;23;20428;-91
2023/04/08 10:48:16;;;;;;;0.10;0.10;;;10.30;99.90;;;;;;6187232;23;20048;-90
2023/04/08 10:50:43;;;;;;;0.10;0.10;;;10.20;99.90;;;;;;6188002;23;20046;-91
2023/04/08 10:53:10;;;;;;;0.10;0.10;;;10.10;99.90;;;;;;6188258;23;20004;-91
2023/04/08 10:55:36;;;;;;;0.10;0.10;;;10.20;99.90;;;;;;6188551;23;20488;-91
2023/04/08 10:58:09;;;;;;;0.00;0.00;;;10.40;99.90;;;;;;6187675;23;19996;-90
2023/04/08 11:00:38;;;;;;;0.00;0.00;;;10.30;99.90;;;;;;6188480;23;20007;-91
2023/04/08 11:03:09;;;;;;;0.10;0.10;;;10.40;99.90;;;;;;6190734;23;20344;-91
2023/04/08 11:05:36;;;;;;;0.10;0.10;;;;;;;;;;6211669;23;20023;-91
2023/04/08 11:08:01;;;;;;;0.10;0.10;;;10.60;99.90;;;;;;6202706;23;20064;-91
2023/04/08 11:10:27;;;;;;;0.10;0.10;;;10.70;99.90;;;;;;6191007;23;20023;-91
2023/04/08 11:12:54;;;;;;;0.10;0.10;;;;;;;;;;6187415;23;20432;-91
2023/04/08 11:15:21;;;;;;;0.10;0.10;;;10.80;99.90;;;;;;6186729;23;20468;-91
2023/04/08 11:17:47;;;;;;;0.10;0.10;;;10.90;99.90;;;;;;6187633;23;20009;-91
2023/04/08 11:20:13;;;;;;;0.10;0.10;;;11.00;99.90;;;;;;6187239;23;19997;-91
2023/04/08 11:22:39;;;;;;;0.10;0.10;;;11.20;99.90;;;;;;6187626;23;20004;-90
2023/04/08 11:25:07;;;;;;;0.00;0.00;;;11.50;99.90;;;;;;6187667;23;20001;-91
2023/04/08 11:27:34;;;;;;;0.10;0.10;;;11.50;99.90;;;;;;6187600;23;20054;-90
2023/04/08 11:30:00;;;;;;;0.10;0.10;;;11.50;99.90;;;;;;6186699;23;20058;-90
2023/04/08 11:32:27;;;;;;;0.00;0.00;;;11.50;99.90;;;;;;6189540;23;20004;-90
2023/04/08 11:34:53;;;;;;;0.10;0.10;;;11.70;99.90;;;;;;6188932;23;20008;-91
2023/04/08 11:37:18;;;;;;;0.10;0.10;;;11.70;99.90;;;;;;6189374;23;20340;-90
2023/04/08 11:39:45;;;;;;;0.00;0.00;;;11.70;99.90;;;;;;6189405;23;20040;-90
2023/04/08 11:42:27;;;;;;;0.03;0.03;;;11.70;99.90;;;;;;6189564;23;20013;-90
2023/04/08 11:44:53;;;;;;;0.10;0.10;;;11.40;99.90;;;;;;6189172;23;20012;-90
2023/04/08 11:47:18;;;;;;;0.00;0.00;;;11.40;99.90;;;;;;6189110;23;20012;-90
2023/04/08 11:49:45;;;;;;;0.00;0.00;;;11.50;99.90;;;;;;6189280;23;20013;-90
2023/04/08 11:52:11;;;;;;;0.10;0.10;;;11.50;99.90;;;;;;6189582;23;20008;-90
2023/04/08 11:54:41;;;;;;;0.10;0.10;;;11.60;99.90;;;;;;6189200;23;20009;-90
2023/04/08 11:57:08;;;;;;;;;;;11.40;99.90;;;;;;6190190;23;20262;-91
2023/04/08 11:59:35;;;;;;;0.10;0.10;;;11.40;99.90;;;;;;6189570;23;20293;-90
2023/04/08 12:02:01;;;;;;;0.10;0.10;;;11.40;99.90;;;;;;6188480;23;20015;-90
2023/04/08 12:04:26;;;;;;;0.00;0.00;;;11.00;99.90;;;;;;6217071;23;20004;-91
2023/04/08 12:06:52;;;;;;;0.10;0.10;;;11.00;99.90;;;;;;6190224;23;20191;-91
2023/04/08 12:09:17;;;;;;;0.10;0.10;;;11.00;99.90;;;;;;6189624;23;20001;-89
2023/04/08 12:11:43;;;;;;;0.10;0.10;;;11.10;99.90;;;;;;6190129;23;20005;-90
2023/04/08 12:14:09;;;;;;;0.10;0.10;;;11.00;99.90;;;;;;6190610;23;19996;-90
2023/04/08 12:16:35;;;;;;;0.10;0.10;;;11.00;99.90;;;;;;6190164;23;20001;-89
2023/04/08 12:19:00;;;;;;;0.10;0.10;;;11.10;99.90;;;;;;6190055;23;20039;-91
2023/04/08 12:21:26;;;;;;;0.10;0.10;;;11.10;99.90;;;;;;6190833;23;20035;-91
2023/04/08 12:23:52;;;;;;;0.00;0.00;;;11.00;99.90;;;;;;6190535;23;20004;-91
2023/04/08 12:26:18;;;;;;;0.05;0.05;;;11.10;99.90;;;;;;6190895;23;20383;-90
2023/04/08 12:28:44;;;;;;;0.10;0.10;;;11.20;99.90;;;;;;6190172;23;20099;-90
2023/04/08 12:31:10;;;;;;;0.10;0.10;;;11.30;99.90;;;;;;6189245;23;20005;-90
2023/04/08 12:33:36;;;;;;;0.10;0.10;;;11.20;99.90;;;;;;6190025;23;19996;-91
2023/04/08 12:36:02;;;;;;;0.10;0.10;;;11.10;99.90;;;;;;6190267;23;20087;-90
2023/04/08 12:38:27;;;;;;;0.10;0.10;;;11.30;99.90;;;;;;6190563;23;20012;-90
2023/04/08 12:40:54;;;;;;;0.00;0.00;;;11.30;99.90;;;;;;6189289;23;20034;-90
2023/04/08 12:43:20;;;;;;;0.10;0.10;;;11.20;99.90;;;;;;6189113;23;20396;-90
2023/04/08 12:45:47;;;;;;;0.10;0.10;;;11.40;99.90;;;;;;6189141;23;20005;-90
2023/04/08 12:48:13;;;;;;;0.00;0.00;;;11.50;99.90;;;;;;6188695;23;20008;-90
2023/04/08 12:50:38;;;;;;;0.10;0.10;;;11.50;99.90;;;;;;6189380;23;20320;-90
2023/04/08 12:53:04;;;;;;;0.00;0.00;;;11.40;99.90;;;;;;6188634;23;20026;-91
2023/04/08 12:55:30;;;;;;;0.10;0.10;;;11.40;99.90;;;;;;6189476;23;20016;-90
2023/04/08 12:57:55;;;;;;;0.10;0.10;;;11.50;99.90;;;;;;6187793;23;20714;-92
2023/04/08 13:00:21;;;;;;;0.10;0.10;;;11.30;99.90;;;;;;6189177;23;20035;-91